createdAt,value
2019-01-31T00:00:52.362Z,100.00
2019-01-31T00:04:04.734Z,100.00
2019-01-31T00:07:03.465Z,100.00
2019-01-31T00:10:18.634Z,100.00
2019-01-31T00:13:15.983Z,100.00
2019-01-31T00:16:03.923Z,100.00
2019-01-31T00:18:53.962Z,100.00
2019-01-31T00:22:08.689Z,100.00
2019-01-31T00:24:45.254Z,100.00
2019-01-31T00:27:44.251Z,100.00
2019-01-31T00:31:00.214Z,100.00
2019-01-31T00:34:02.939Z,100.00
2019-01-31T00:37:28.335Z,100.00
2019-01-31T00:40:46.784Z,100.00
2019-01-31T00:43:56.386Z,100.00
2019-01-31T00:47:13.726Z,100.00
2019-01-31T00:50:18.327Z,100.00
2019-01-31T00:53:18.031Z,100.00
2019-01-31T00:56:20.156Z,100.00
2019-01-31T00:59:16.047Z,100.00
2019-01-31T01:02:37.626Z,100.00
2019-01-31T01:05:45.816Z,100.00
2019-01-31T01:08:53.282Z,100.00
2019-01-31T01:12:04.650Z,100.00
2019-01-31T01:15:13.750Z,100.00
2019-01-31T01:17:54.811Z,100.00
2019-01-31T01:21:02.614Z,100.00
2019-01-31T01:23:49.675Z,100.00
2019-01-31T01:26:40.731Z,100.00
2019-01-31T01:29:24.526Z,100.00
2019-01-31T01:32:27.783Z,100.00
2019-01-31T01:35:40.525Z,100.00
2019-01-31T01:38:49.799Z,100.00
2019-01-31T01:41:51.571Z,100.00
2019-01-31T01:45:02.158Z,100.00
2019-01-31T01:48:18.899Z,100.00
2019-01-31T01:51:21.068Z,100.00
2019-01-31T01:54:15.813Z,100.00
2019-01-31T01:57:14.078Z,100.00
2019-01-31T02:00:15.971Z,100.00
2019-01-31T02:03:35.135Z,100.00
2019-01-31T02:06:45.424Z,100.00
2019-01-31T02:09:38.549Z,100.00
2019-01-31T02:12:37.998Z,100.00
2019-01-31T02:16:02.476Z,100.00
2019-01-31T02:18:43.671Z,100.00
2019-01-31T02:22:05.120Z,100.00
2019-01-31T02:25:00.649Z,100.00
2019-01-31T02:28:29.514Z,100.00
2019-01-31T02:31:43.260Z,100.00
2019-01-31T02:34:48.126Z,100.00
2019-01-31T02:37:42.361Z,100.00
2019-01-31T02:40:19.469Z,100.00
2019-01-31T02:43:19.128Z,100.00
2019-01-31T02:46:24.455Z,100.00
2019-01-31T02:49:28.650Z,100.00
2019-01-31T02:52:18.833Z,100.00
2019-01-31T02:55:27.460Z,100.00
2019-01-31T02:58:34.690Z,100.00
2019-01-31T03:02:00.265Z,100.00
2019-01-31T03:04:57.357Z,100.00
2019-01-31T03:07:57.440Z,100.00
2019-01-31T03:10:46.232Z,100.00
2019-01-31T03:14:09.506Z,100.00
2019-01-31T03:16:44.690Z,100.00
2019-01-31T03:20:03.354Z,100.00
2019-01-31T03:23:11.882Z,100.00
2019-01-31T03:26:01.042Z,100.00
2019-01-31T03:29:08.556Z,100.00
2019-01-31T03:32:21.155Z,100.00
2019-01-31T03:35:37.318Z,100.00
2019-01-31T03:38:33.376Z,100.00
2019-01-31T03:41:52.675Z,100.00
2019-01-31T03:44:43.143Z,100.00
2019-01-31T03:47:23.245Z,100.00
2019-01-31T03:50:22.176Z,100.00
2019-01-31T03:53:41.920Z,100.00
2019-01-31T03:56:53.877Z,100.00
2019-01-31T03:59:27.798Z,100.00
2019-01-31T04:02:10.112Z,100.00
2019-01-31T04:04:54.797Z,100.00
2019-01-31T04:07:24.316Z,100.00
2019-01-31T04:09:54.105Z,100.00
2019-01-31T04:12:23.270Z,100.00
2019-01-31T04:14:52.814Z,100.00
2019-01-31T04:17:22.105Z,100.00
2019-01-31T04:19:51.950Z,100.00
2019-01-31T04:22:21.169Z,100.00
2019-01-31T04:24:50.914Z,100.00
2019-01-31T04:27:20.088Z,100.00
2019-01-31T04:29:49.283Z,100.00
2019-01-31T04:32:18.506Z,100.00
2019-01-31T04:34:47.730Z,100.00
2019-01-31T04:37:17.140Z,100.00
2019-01-31T04:39:47.000Z,100.00
2019-01-31T04:42:16.137Z,100.00
2019-01-31T04:44:45.707Z,100.00
2019-01-31T04:47:15.244Z,100.00
2019-01-31T04:49:44.678Z,100.00
2019-01-31T04:52:13.881Z,100.00
2019-01-31T04:54:43.072Z,100.00
2019-01-31T04:57:12.595Z,100.00
2019-01-31T04:59:42.978Z,100.00
2019-01-31T05:02:12.223Z,100.00
2019-01-31T05:04:41.428Z,100.00
2019-01-31T05:07:10.576Z,100.00
2019-01-31T05:09:39.740Z,100.00
2019-01-31T05:12:08.950Z,100.00
2019-01-31T05:14:38.176Z,100.00
2019-01-31T05:17:07.440Z,100.00
2019-01-31T05:19:37.442Z,100.00
2019-01-31T05:22:07.600Z,100.00
2019-01-31T05:24:37.144Z,100.00
2019-01-31T05:27:06.355Z,100.00
2019-01-31T05:29:36.593Z,100.00
2019-01-31T05:32:06.100Z,100.00
2019-01-31T05:34:35.576Z,100.00
2019-01-31T05:37:05.084Z,100.00
2019-01-31T05:39:34.268Z,100.00
2019-01-31T05:42:03.454Z,100.00
2019-01-31T05:44:33.302Z,100.00
2019-01-31T05:47:02.778Z,100.00
2019-01-31T05:49:31.966Z,100.00
2019-01-31T05:52:01.162Z,100.00
2019-01-31T05:54:30.289Z,100.00
2019-01-31T05:57:00.210Z,100.00
2019-01-31T05:59:29.714Z,100.00
2019-01-31T06:01:59.209Z,100.00
2019-01-31T06:04:28.351Z,100.00
2019-01-31T06:06:57.663Z,100.00
2019-01-31T06:09:26.801Z,100.00
2019-01-31T06:11:55.995Z,100.00
2019-01-31T06:16:26.895Z,100.00
2019-01-31T06:18:56.067Z,100.00
2019-01-31T06:21:25.220Z,100.00
2019-01-31T06:23:54.810Z,100.00
2019-01-31T06:26:24.409Z,100.00
2019-01-31T06:28:53.811Z,100.00
2019-01-31T06:31:23.307Z,100.00
2019-01-31T06:33:52.462Z,100.00
2019-01-31T06:36:21.671Z,100.00
2019-01-31T06:38:51.145Z,100.00
2019-01-31T06:41:20.389Z,100.00
2019-01-31T06:43:49.923Z,100.00
2019-01-31T06:46:19.417Z,100.00
2019-01-31T06:48:48.621Z,100.00
2019-01-31T06:51:17.792Z,100.00
2019-01-31T06:53:47.009Z,100.00
2019-01-31T06:56:16.820Z,100.00
2019-01-31T06:58:46.010Z,100.00
2019-01-31T07:01:15.237Z,100.00
2019-01-31T07:03:44.490Z,100.00
2019-01-31T07:06:14.035Z,100.00
2019-01-31T07:08:43.566Z,100.00
2019-01-31T07:11:13.776Z,100.00
2019-01-31T07:13:43.447Z,100.00
2019-01-31T07:16:12.639Z,100.00
2019-01-31T07:18:42.199Z,100.00
2019-01-31T07:21:11.394Z,100.00
2019-01-31T07:23:40.745Z,100.00
2019-01-31T07:26:10.284Z,100.00
2019-01-31T07:28:39.898Z,100.00
2019-01-31T07:31:09.733Z,100.00
2019-01-31T07:33:39.133Z,100.00
2019-01-31T07:36:08.354Z,100.00
2019-01-31T07:38:37.623Z,100.00
2019-01-31T07:41:06.824Z,100.00
2019-01-31T07:43:36.014Z,100.00
2019-01-31T07:46:05.821Z,100.00
2019-01-31T07:48:34.992Z,100.00
2019-01-31T07:51:04.552Z,100.00
2019-01-31T07:53:34.869Z,100.00
2019-01-31T07:56:04.103Z,100.00
2019-01-31T07:58:33.865Z,100.00
2019-01-31T08:01:03.214Z,100.00
2019-01-31T08:03:32.767Z,100.00
2019-01-31T08:06:01.981Z,100.00
2019-01-31T08:08:31.316Z,100.00
2019-01-31T08:11:02.526Z,100.00
2019-01-31T08:13:32.069Z,100.00
2019-01-31T08:16:02.155Z,100.00
2019-01-31T08:18:32.094Z,100.00
2019-01-31T08:21:01.576Z,100.00
2019-01-31T08:23:30.783Z,100.00
2019-01-31T08:26:00.051Z,100.00
2019-01-31T08:28:29.610Z,100.00
2019-01-31T08:30:58.978Z,100.00
2019-01-31T08:33:28.589Z,100.00
2019-01-31T08:35:57.915Z,100.00
2019-01-31T08:38:27.713Z,100.00
2019-01-31T08:40:56.996Z,100.00
2019-01-31T08:43:26.617Z,100.00
2019-01-31T08:45:55.806Z,100.00
2019-01-31T08:48:25.524Z,100.00
2019-01-31T08:50:55.003Z,99.87
2019-01-31T08:53:24.536Z,99.46
2019-01-31T08:55:53.700Z,99.77
2019-01-31T08:58:22.980Z,99.79
2019-01-31T09:00:53.166Z,100.00
2019-01-31T09:03:22.534Z,99.97
2019-01-31T09:05:51.701Z,99.62
2019-01-31T09:08:20.926Z,99.37
2019-01-31T09:10:50.199Z,99.35
2019-01-31T09:13:19.451Z,99.18
2019-01-31T09:15:48.777Z,99.07
2019-01-31T09:18:19.450Z,98.90
2019-01-31T09:20:55.631Z,98.93
2019-01-31T09:23:51.116Z,98.58
2019-01-31T09:27:07.687Z,98.62
2019-01-31T09:29:47.740Z,98.87
2019-01-31T09:32:45.109Z,99.22
2019-01-31T09:35:50.824Z,99.37
2019-01-31T09:39:28.801Z,99.68
2019-01-31T09:42:26.046Z,99.28
2019-01-31T09:45:08.840Z,99.61
2019-01-31T09:48:08.892Z,99.53
2019-01-31T09:51:28.309Z,99.58
2019-01-31T09:54:33.009Z,99.42
2019-01-31T09:57:46.019Z,99.39
2019-01-31T10:00:53.083Z,99.10
2019-01-31T10:04:18.590Z,97.64
2019-01-31T10:07:35.454Z,97.25
2019-01-31T10:10:35.636Z,95.86
2019-01-31T10:13:51.925Z,95.88
2019-01-31T10:16:41.122Z,95.46
2019-01-31T10:19:54.930Z,94.07
2019-01-31T10:22:49.884Z,93.80
2019-01-31T10:26:09.247Z,93.67
2019-01-31T10:29:02.145Z,94.10
2019-01-31T10:32:27.388Z,94.62
2019-01-31T10:35:14.324Z,95.80
2019-01-31T10:38:07.078Z,96.05
2019-01-31T10:41:02.230Z,95.47
2019-01-31T10:43:42.746Z,94.51
2019-01-31T10:46:25.604Z,95.20
2019-01-31T10:49:37.251Z,94.28
2019-01-31T10:52:41.491Z,92.71
2019-01-31T10:55:50.042Z,93.32
2019-01-31T10:58:39.283Z,92.49
2019-01-31T11:02:07.740Z,90.75
2019-01-31T11:05:21.149Z,91.29
2019-01-31T11:08:28.547Z,90.70
2019-01-31T11:11:34.553Z,90.49
2019-01-31T11:14:57.081Z,89.35
2019-01-31T11:18:00.623Z,91.00
2019-01-31T11:20:50.012Z,89.00
2019-01-31T11:23:51.769Z,88.53
2019-01-31T11:27:05.598Z,88.64
2019-01-31T11:30:11.522Z,89.73
2019-01-31T11:33:32.749Z,89.07
2019-01-31T11:36:46.491Z,88.28
2019-01-31T11:40:02.529Z,87.62
2019-01-31T11:43:11.472Z,86.51
2019-01-31T11:46:11.403Z,86.64
2019-01-31T11:49:02.723Z,85.05
2019-01-31T11:52:31.451Z,85.17
2019-01-31T11:55:24.847Z,84.23
2019-01-31T11:58:31.041Z,82.48
2019-01-31T12:01:00.870Z,81.61
2019-01-31T12:03:30.441Z,82.90
2019-01-31T12:05:59.958Z,84.56
2019-01-31T12:08:29.120Z,86.29
2019-01-31T12:10:58.670Z,87.23
2019-01-31T12:13:27.869Z,87.86
2019-01-31T12:15:57.106Z,87.15
2019-01-31T12:18:26.549Z,87.10
2019-01-31T12:20:55.752Z,84.21
2019-01-31T12:23:25.943Z,83.46
2019-01-31T12:25:56.435Z,84.92
2019-01-31T12:28:26.104Z,85.54
2019-01-31T12:30:55.839Z,85.87
2019-01-31T12:33:26.998Z,84.28
2019-01-31T12:35:57.488Z,83.96
2019-01-31T12:38:36.487Z,84.35
2019-01-31T12:40:59.861Z,83.74
2019-01-31T12:43:35.250Z,83.45
2019-01-31T12:46:01.151Z,84.56
2019-01-31T12:48:30.668Z,84.94
2019-01-31T12:51:00.141Z,86.60
2019-01-31T12:53:29.667Z,85.37
2019-01-31T12:55:59.489Z,85.10
2019-01-31T12:58:33.683Z,85.47
2019-01-31T13:01:00.757Z,85.96
2019-01-31T13:03:30.258Z,85.22
2019-01-31T13:05:59.483Z,87.46
2019-01-31T13:08:29.067Z,88.68
2019-01-31T13:10:58.192Z,89.12
2019-01-31T13:13:27.409Z,88.82
2019-01-31T13:15:56.867Z,89.13
2019-01-31T13:18:26.479Z,88.54
2019-01-31T13:20:55.858Z,88.66
2019-01-31T13:23:25.017Z,89.17
2019-01-31T13:25:54.213Z,89.07
2019-01-31T13:28:23.584Z,88.70
2019-01-31T13:30:53.509Z,89.50
2019-01-31T13:33:22.690Z,89.89
2019-01-31T13:35:51.851Z,89.65
2019-01-31T13:38:21.006Z,89.75
2019-01-31T13:40:50.372Z,88.55
2019-01-31T13:43:20.019Z,87.96
2019-01-31T13:45:49.204Z,87.86
2019-01-31T13:48:18.517Z,88.87
2019-01-31T13:50:47.659Z,88.72
2019-01-31T13:53:16.812Z,88.77
2019-01-31T13:55:47.190Z,89.72
2019-01-31T13:58:16.367Z,90.17
2019-01-31T14:00:45.892Z,89.87
2019-01-31T14:03:15.061Z,90.13
2019-01-31T14:05:44.252Z,90.29
2019-01-31T14:08:13.461Z,90.12
2019-01-31T14:10:42.675Z,90.19
2019-01-31T14:13:11.810Z,89.99
2019-01-31T14:15:41.028Z,89.66
2019-01-31T14:18:10.239Z,89.22
2019-01-31T14:20:39.466Z,89.79
2019-01-31T14:23:08.665Z,90.62
2019-01-31T14:25:37.865Z,90.91
2019-01-31T14:28:07.026Z,91.56
2019-01-31T14:30:38.227Z,92.16
2019-01-31T14:33:20.074Z,91.79
2019-01-31T14:35:49.257Z,91.79
2019-01-31T14:38:18.803Z,92.28
2019-01-31T14:40:48.240Z,92.12
2019-01-31T14:43:17.756Z,92.08
2019-01-31T14:45:47.467Z,92.19
2019-01-31T14:48:16.678Z,91.99
2019-01-31T14:50:45.885Z,91.74
2019-01-31T14:53:15.170Z,91.64
2019-01-31T14:55:44.365Z,91.08
2019-01-31T14:58:13.766Z,90.89
2019-01-31T15:00:44.355Z,90.90
2019-01-31T15:03:13.571Z,90.50
2019-01-31T15:05:44.272Z,90.64
2019-01-31T15:08:14.029Z,90.71
2019-01-31T15:10:45.845Z,90.50
2019-01-31T15:13:14.087Z,90.09
2019-01-31T15:15:43.300Z,89.33
2019-01-31T15:18:12.518Z,90.42
2019-01-31T15:20:44.277Z,90.38
2019-01-31T15:23:13.755Z,90.41
2019-01-31T15:25:43.306Z,90.63
2019-01-31T15:28:13.156Z,90.47
2019-01-31T15:30:42.448Z,90.83
2019-01-31T15:33:13.689Z,91.06
2019-01-31T15:35:44.264Z,91.07
2019-01-31T15:38:14.015Z,91.66
2019-01-31T15:40:46.460Z,92.43
2019-01-31T15:43:15.642Z,92.43
2019-01-31T15:45:46.748Z,92.99
2019-01-31T15:48:16.655Z,93.00
2019-01-31T15:50:45.846Z,93.46
2019-01-31T15:53:15.328Z,93.59
2019-01-31T15:55:45.103Z,93.51
2019-01-31T15:58:15.069Z,92.95
2019-01-31T16:00:49.836Z,93.22
2019-01-31T16:03:21.093Z,93.28
2019-01-31T16:05:51.432Z,92.66
2019-01-31T16:08:20.869Z,92.88
2019-01-31T16:10:50.200Z,92.92
2019-01-31T16:13:19.380Z,93.03
2019-01-31T16:15:48.691Z,93.04
2019-01-31T16:18:17.994Z,93.23
2019-01-31T16:20:49.701Z,93.07
2019-01-31T16:23:19.375Z,93.33
2019-01-31T16:25:48.760Z,93.89
2019-01-31T16:28:18.352Z,94.73
2019-01-31T16:30:47.559Z,94.95
2019-01-31T16:33:16.762Z,95.10
2019-01-31T16:35:47.343Z,95.57
2019-01-31T16:38:16.918Z,95.64
2019-01-31T16:40:46.175Z,95.84
2019-01-31T16:43:15.341Z,95.72
2019-01-31T16:45:46.255Z,94.85
2019-01-31T16:48:15.749Z,95.40
2019-01-31T16:50:45.558Z,95.90
2019-01-31T16:53:15.365Z,96.35
2019-01-31T16:55:44.898Z,96.60
2019-01-31T16:58:14.160Z,96.04
2019-01-31T17:00:43.514Z,95.95
2019-01-31T17:03:13.291Z,96.39
2019-01-31T17:05:42.607Z,96.79
2019-01-31T17:08:11.855Z,96.97
2019-01-31T17:10:41.394Z,96.67
2019-01-31T17:13:10.680Z,96.84
2019-01-31T17:15:40.201Z,96.47
2019-01-31T17:18:09.465Z,96.36
2019-01-31T17:20:43.976Z,96.05
2019-01-31T17:23:13.636Z,96.63
2019-01-31T17:25:42.939Z,96.66
2019-01-31T17:28:12.800Z,96.42
2019-01-31T17:30:42.016Z,96.08
2019-01-31T17:33:11.577Z,95.96
2019-01-31T17:35:40.787Z,96.12
2019-01-31T17:38:10.152Z,96.46
2019-01-31T17:40:41.018Z,95.57
2019-01-31T17:43:13.359Z,96.16
2019-01-31T17:45:43.189Z,95.56
2019-01-31T17:48:16.295Z,95.80
2019-01-31T17:50:46.394Z,95.83
2019-01-31T17:53:15.685Z,96.08
2019-01-31T17:55:44.951Z,96.11
2019-01-31T17:58:14.597Z,95.76
2019-01-31T18:01:01.801Z,96.14
2019-01-31T18:03:31.341Z,95.63
2019-01-31T18:06:01.216Z,95.04
2019-01-31T18:08:30.506Z,95.03
2019-01-31T18:11:00.078Z,95.03
2019-01-31T18:13:30.064Z,95.03
2019-01-31T18:15:59.609Z,95.63
2019-01-31T18:18:30.003Z,95.68
2019-01-31T18:20:59.529Z,95.37
2019-01-31T18:23:29.089Z,95.23
2019-01-31T18:25:58.243Z,95.49
2019-01-31T18:28:27.641Z,95.84
2019-01-31T18:30:57.222Z,96.28
2019-01-31T18:33:27.643Z,96.04
2019-01-31T18:35:56.972Z,96.40
2019-01-31T18:38:26.407Z,96.71
2019-01-31T18:40:55.643Z,97.10
2019-01-31T18:43:24.870Z,97.31
2019-01-31T18:45:54.151Z,97.82
2019-01-31T18:48:23.959Z,98.36
2019-01-31T18:50:53.266Z,98.93
2019-01-31T18:53:22.635Z,99.24
2019-01-31T18:55:52.102Z,99.29
2019-01-31T18:58:23.092Z,99.53
2019-01-31T19:00:52.732Z,100.00
2019-01-31T19:03:21.931Z,100.00
2019-01-31T19:05:51.110Z,100.00
2019-01-31T19:08:20.368Z,100.00
2019-01-31T19:10:50.287Z,100.00
2019-01-31T19:13:19.510Z,100.00
2019-01-31T19:15:48.868Z,100.00
2019-01-31T19:18:18.887Z,100.00
2019-01-31T19:20:49.768Z,100.00
2019-01-31T19:23:20.566Z,100.00
2019-01-31T19:25:49.826Z,100.00
2019-01-31T19:28:19.032Z,100.00
2019-01-31T19:30:48.478Z,100.00
2019-01-31T19:33:17.723Z,100.00
2019-01-31T19:35:47.271Z,100.00
2019-01-31T19:38:16.516Z,100.00
2019-01-31T19:40:47.032Z,100.00
2019-01-31T19:43:16.761Z,100.00
2019-01-31T19:45:50.664Z,100.00
2019-01-31T19:48:19.830Z,100.00
2019-01-31T19:50:49.633Z,100.00
2019-01-31T19:53:19.415Z,100.00
2019-01-31T19:55:49.343Z,100.00
2019-01-31T19:58:20.122Z,100.00
2019-01-31T20:00:49.394Z,100.00
2019-01-31T20:03:18.622Z,100.00
2019-01-31T20:05:48.636Z,100.00
2019-01-31T20:08:18.252Z,100.00
2019-01-31T20:10:48.181Z,100.00
2019-01-31T20:13:17.989Z,100.00
2019-01-31T20:15:47.629Z,100.00
2019-01-31T20:18:17.091Z,99.99
2019-01-31T20:20:47.039Z,99.87
2019-01-31T20:23:16.651Z,100.00
2019-01-31T20:25:46.534Z,100.00
2019-01-31T20:28:15.724Z,100.00
2019-01-31T20:30:45.433Z,100.00
2019-01-31T20:33:15.175Z,100.00
2019-01-31T20:35:44.555Z,100.00
2019-01-31T20:38:14.082Z,100.00
2019-01-31T20:40:44.627Z,99.99
2019-01-31T20:43:13.993Z,99.99
2019-01-31T20:45:45.164Z,100.00
2019-01-31T20:48:14.512Z,100.00
2019-01-31T20:50:43.664Z,100.00
2019-01-31T20:53:13.668Z,99.93
2019-01-31T20:58:18.536Z,99.04
2019-01-31T21:00:48.765Z,99.11
2019-01-31T21:03:17.968Z,98.27
2019-01-31T21:05:47.864Z,97.30
2019-01-31T21:08:18.577Z,97.91
2019-01-31T21:10:48.025Z,96.94
2019-01-31T21:13:18.002Z,97.57
2019-01-31T21:15:47.461Z,97.32
2019-01-31T21:18:17.155Z,97.12
2019-01-31T21:20:49.024Z,97.66
2019-01-31T21:23:18.525Z,97.20
2019-01-31T21:25:47.683Z,96.58
2019-01-31T21:28:17.273Z,96.61
2019-01-31T21:30:46.493Z,96.84
2019-01-31T21:33:16.155Z,97.32
2019-01-31T21:35:45.643Z,97.88
2019-01-31T21:38:15.162Z,97.46
2019-01-31T21:40:44.362Z,97.33
2019-01-31T21:43:13.871Z,97.02
2019-01-31T21:45:43.536Z,96.97
2019-01-31T21:48:12.775Z,96.99
2019-01-31T21:50:41.937Z,96.81
2019-01-31T21:53:11.808Z,96.28
2019-01-31T21:55:42.189Z,96.47
2019-01-31T21:58:11.325Z,95.99
2019-01-31T22:00:40.808Z,95.97
2019-01-31T22:03:10.270Z,95.95
2019-01-31T22:05:40.131Z,95.55
2019-01-31T22:08:10.050Z,95.24
2019-01-31T22:10:39.204Z,95.41
2019-01-31T22:13:08.851Z,95.46
2019-01-31T22:15:38.499Z,95.59
2019-01-31T22:18:08.167Z,95.25
2019-01-31T22:20:37.845Z,95.23
2019-01-31T22:23:07.053Z,95.26
2019-01-31T22:25:36.613Z,95.36
2019-01-31T22:28:06.182Z,95.54
2019-01-31T22:30:37.559Z,95.73
2019-01-31T22:33:08.459Z,96.71
2019-01-31T22:35:38.024Z,96.84
2019-01-31T22:38:07.826Z,97.07
2019-01-31T22:40:37.322Z,97.40
2019-01-31T22:43:07.280Z,96.94
2019-01-31T22:45:36.481Z,96.67
2019-01-31T22:48:07.513Z,96.52
2019-01-31T22:50:36.803Z,96.38
2019-01-31T22:53:06.741Z,96.03
2019-01-31T22:55:35.894Z,96.37
2019-01-31T22:58:05.797Z,96.33
2019-01-31T23:01:23.035Z,96.55
2019-01-31T23:03:52.622Z,96.14
2019-01-31T23:06:21.916Z,95.71
2019-01-31T23:08:51.377Z,95.94
2019-01-31T23:11:20.867Z,95.02
2019-01-31T23:13:50.249Z,94.32
2019-01-31T23:16:19.732Z,94.60
2019-01-31T23:18:48.937Z,94.82
2019-01-31T23:21:18.100Z,95.28
2019-01-31T23:23:47.244Z,95.96
2019-01-31T23:26:16.538Z,96.30
2019-01-31T23:28:46.073Z,96.30
2019-01-31T23:31:15.227Z,96.71
2019-01-31T23:33:44.552Z,96.18
2019-01-31T23:36:14.191Z,96.06
2019-01-31T23:38:43.354Z,95.95
2019-01-31T23:41:12.541Z,96.29
2019-01-31T23:43:41.688Z,96.35
2019-01-31T23:46:10.865Z,96.69
2019-01-31T23:48:40.434Z,96.88
2019-01-31T23:51:10.597Z,97.23
2019-01-31T23:53:39.782Z,97.46
2019-01-31T23:56:08.979Z,97.78
2019-01-31T23:58:40.071Z,97.85
